Time;durP1;ratioP1;P1;durP2;ratioP2;P2;SDS_P1;SDS_P2;PMS_P1;PMS_P2;Temp;Humidity;BMP_temperature;BMP_pressure;BME280_temperature;BME280_humidity;BME280_pressure;Samples;Min_cycle;Max_cycle;Signal;HPM_P1;HPM_P2
2023/06/29 00:01:05;;;;;;;11.82;6.00;;;;;;;22.28;82.64;101100.38;7361134;19;20016;-65
2023/06/29 00:03:33;;;;;;;12.43;6.63;;;;;;;22.24;82.69;101101.84;7365836;19;20018;-65
2023/06/29 00:06:01;;;;;;;13.30;7.15;;;;;;;22.24;83.50;101099.16;7362994;19;20657;-65
2023/06/29 00:08:35;;;;;;;13.02;6.30;;;;;;;22.24;83.02;101101.03;7360036;19;20015;-65
2023/06/29 00:11:07;;;;;;;12.30;6.53;;;;;;;22.26;83.32;101106.97;7360407;19;20018;-66
2023/06/29 00:13:35;;;;;;;11.80;6.25;;;;;;;22.22;83.02;101109.28;7360788;19;20017;-65
2023/06/29 00:16:02;;;;;;;13.52;7.20;;;;;;;22.17;83.68;101109.97;7359465;19;20772;-65
2023/06/29 00:18:29;;;;;;;12.98;6.43;;;;;;;22.16;83.62;101102.94;7359775;19;20520;-66
2023/06/29 00:20:57;;;;;;;12.80;6.50;;;;;;;22.18;83.89;101100.88;7359992;19;20015;-66
2023/06/29 00:23:27;;;;;;;12.07;6.05;;;;;;;22.17;83.65;101101.91;7362449;19;20021;-66
2023/06/29 00:25:56;;;;;;;11.85;6.60;;;;;;;;;;7357648;19;20011;-65
2023/06/29 00:28:23;;;;;;;12.68;6.05;;;;;;;22.09;83.90;101102.22;7359408;19;20098;-65
2023/06/29 00:30:50;;;;;;;13.82;7.53;;;;;;;22.11;84.40;101099.28;7356437;19;20392;-65
2023/06/29 00:33:17;;;;;;;12.38;6.32;;;;;;;22.11;83.94;101093.94;7358036;19;20066;-66
2023/06/29 00:35:44;;;;;;;10.95;6.43;;;;;;;22.08;84.15;101092.53;7363145;19;20013;-65
2023/06/29 00:38:11;;;;;;;14.07;6.10;;;;;;;22.07;84.28;101082.84;7359818;19;20086;-65
2023/06/29 00:40:38;;;;;;;14.00;6.82;;;;;;;22.06;84.09;101070.47;7361063;19;20051;-66
2023/06/29 00:43:05;;;;;;;14.98;6.45;;;;;;;22.04;84.48;101069.06;7361501;19;20018;-66
2023/06/29 00:45:32;;;;;;;12.77;5.88;;;;;;;22.03;84.71;101067.44;7357927;19;20497;-65
2023/06/29 00:48:00;;;;;;;12.10;6.22;;;;;;;22.04;84.15;101063.72;7359229;19;20474;-65
2023/06/29 00:50:27;;;;;;;12.02;6.07;;;;;;;22.03;84.40;101060.22;7358475;19;20085;-65
2023/06/29 00:52:54;;;;;;;12.40;6.07;;;;;;;22.03;84.42;101054.84;7359177;19;20026;-64
2023/06/29 00:55:22;;;;;;;12.73;7.38;;;;;;;22.05;84.44;101055.41;7362767;19;20015;-65
2023/06/29 00:57:49;;;;;;;12.07;5.82;;;;;;;22.06;85.06;101064.28;7359731;19;20018;-64
2023/06/29 01:00:17;;;;;;;12.65;6.45;;;;;;;22.04;84.62;101064.53;7356559;19;20573;-65
2023/06/29 01:02:44;;;;;;;12.00;6.50;;;;;;;22.04;84.47;101056.50;7354126;19;20817;-65
2023/06/29 01:05:13;;;;;;;12.60;6.68;;;;;;;22.03;84.08;101040.63;7361295;19;20375;-65
2023/06/29 01:07:59;;;;;;;17.73;6.00;;;;;;;22.05;84.09;101041.19;7359030;19;20018;-65
2023/06/29 01:10:29;;;;;;;10.98;6.18;;;;;;;22.04;84.37;101036.91;7365130;19;20029;-64
2023/06/29 01:12:59;;;;;;;13.48;7.00;;;;;;;22.04;85.62;101023.50;7364693;19;20489;-65
2023/06/29 01:15:26;;;;;;;11.35;6.20;;;;;;;22.04;85.68;101018.97;7366210;19;20033;-64
2023/06/29 01:17:58;;;;;;;9.95;6.07;;;;;;;22.03;85.06;101011.13;7365468;19;20014;-65
2023/06/29 01:20:31;;;;;;;12.90;6.30;;;;;;;22.01;85.04;101018.56;7368358;19;20014;-65
2023/06/29 01:23:36;;;;;;;13.43;6.85;;;;;;;21.95;85.00;101033.69;7368174;19;20507;-65
2023/06/29 01:26:05;;;;;;;13.52;6.38;;;;;;;21.90;85.27;101028.13;7366584;19;20446;-65
2023/06/29 01:28:38;;;;;;;13.10;6.55;;;;;;;21.91;86.10;101034.31;7367373;19;20026;-65
2023/06/29 01:31:09;;;;;;;17.08;6.85;;;;;;;21.88;86.17;101040.94;7364235;19;20011;-64
2023/06/29 01:33:36;;;;;;;14.88;6.90;;;;;;;21.87;86.71;101047.34;7333491;19;20018;-65
2023/06/29 01:36:20;;;;;;;11.68;6.68;;;;;;;21.86;87.69;101045.69;7367321;19;20809;-65
2023/06/29 01:39:11;;;;;;;14.32;6.70;;;;;;;21.83;88.37;101048.84;7365281;19;20965;-65
2023/06/29 01:41:40;;;;;;;14.60;7.45;;;;;;;21.84;89.30;101049.66;7364188;19;20019;-65
2023/06/29 01:44:11;;;;;;;17.08;8.25;;;;;;;21.83;90.08;101039.97;7361597;19;20481;-66
2023/06/29 01:46:39;;;;;;;15.10;8.02;;;;;;;21.81;90.49;101032.16;7363693;19;20023;-65
2023/06/29 01:49:07;;;;;;;15.80;7.60;;;;;;;21.77;90.64;101033.63;7366167;19;20006;-64
2023/06/29 01:51:34;;;;;;;15.48;7.45;;;;;;;21.77;91.41;101037.13;7363638;19;20018;-66
2023/06/29 01:54:02;;;;;;;14.70;7.45;;;;;;;21.74;91.92;101031.38;7367008;19;20010;-65
2023/06/29 01:56:29;;;;;;;15.13;8.27;;;;;;;21.71;92.67;101042.56;7366039;19;20383;-66
2023/06/29 01:59:01;;;;;;;15.15;7.28;;;;;;;21.71;93.71;101031.84;7362890;19;20023;-66
2023/06/29 02:01:31;;;;;;;15.43;7.85;;;;;;;21.70;93.54;101036.38;7366220;19;20134;-65
2023/06/29 02:03:58;;;;;;;16.27;8.00;;;;;;;21.65;93.15;101036.22;7359936;19;20692;-64
2023/06/29 02:06:26;;;;;;;13.05;7.63;;;;;;;21.62;93.80;101022.44;7365046;19;20010;-65
2023/06/29 02:08:53;;;;;;;14.98;7.82;;;;;;;21.58;93.86;101031.97;7364038;19;20383;-66
2023/06/29 02:11:28;;;;;;;17.20;8.85;;;;;;;21.60;94.67;101028.03;7366904;19;20061;-65
2023/06/29 02:13:55;;;;;;;17.90;8.38;;;;;;;21.60;95.23;101019.97;7366915;19;20011;-64
2023/06/29 02:16:22;;;;;;;19.08;8.57;;;;;;;21.57;95.67;101025.78;7362838;19;20061;-66
2023/06/29 02:18:56;;;;;;;20.27;9.48;;;;;;;21.51;95.27;101026.66;7364797;19;20018;-65
2023/06/29 02:21:24;;;;;;;20.38;9.55;;;;;;;21.44;95.47;101033.91;7365148;19;20014;-64
2023/06/29 02:23:51;;;;;;;22.00;9.30;;;;;;;21.40;96.19;101023.88;7363824;19;20010;-65
2023/06/29 02:26:18;;;;;;;23.02;10.45;;;;;;;21.39;97.89;101028.41;7365764;19;21998;-65
2023/06/29 02:28:45;;;;;;;18.40;8.95;;;;;;;21.35;98.10;101021.84;7361610;19;20010;-65
2023/06/29 02:31:12;;;;;;;19.95;8.43;;;;;;;21.28;97.95;101021.91;7361738;19;20047;-64
2023/06/29 02:33:39;;;;;;;19.83;8.90;;;;;;;21.25;98.42;101021.53;7363941;19;21869;-65
2023/06/29 02:36:06;;;;;;;16.50;8.43;;;;;;;21.22;98.55;101019.28;7364870;19;20013;-66
2023/06/29 02:38:33;;;;;;;19.67;8.60;;;;;;;21.21;99.27;101014.97;7364407;19;20039;-66
2023/06/29 02:41:00;;;;;;;19.70;7.60;;;;;;;21.20;100.00;101008.78;7362404;19;20005;-64
2023/06/29 02:43:27;;;;;;;19.73;6.72;;;;;;;21.21;100.00;101004.25;7365196;19;20010;-67
2023/06/29 02:45:54;;;;;;;19.42;6.68;;;;;;;21.19;100.00;100999.13;7361115;19;21708;-65
2023/06/29 02:48:21;;;;;;;15.77;5.13;;;;;;;21.20;100.00;100995.41;7363452;19;20007;-66
2023/06/29 02:50:48;;;;;;;7.57;2.80;;;;;;;21.17;100.00;101009.25;7361027;19;20035;-66
2023/06/29 02:53:16;;;;;;;7.95;2.38;;;;;;;21.11;100.00;101002.03;7365174;19;20003;-64
2023/06/29 02:55:43;;;;;;;7.85;2.70;;;;;;;21.08;100.00;100997.13;7364513;19;20614;-65
2023/06/29 02:58:10;;;;;;;11.20;2.22;;;;;;;21.09;100.00;100997.94;7363081;19;20026;-65
2023/06/29 03:00:38;;;;;;;6.05;1.30;;;;;;;21.08;100.00;100999.00;7363983;19;20031;-65
2023/06/29 03:03:05;;;;;;;9.88;0.90;;;;;;;21.05;100.00;100989.53;7359343;19;20014;-65
2023/06/29 03:05:32;;;;;;;7.63;0.90;;;;;;;21.03;100.00;100999.63;7364057;19;20014;-65
2023/06/29 03:07:59;;;;;;;4.10;0.80;;;;;;;21.00;100.00;100991.22;7363887;19;20723;-65
2023/06/29 03:10:26;;;;;;;12.27;0.80;;;;;;;20.95;100.00;100977.66;7363638;19;20608;-65
2023/06/29 03:12:53;;;;;;;2.70;0.40;;;;;;;20.91;100.00;100980.78;7364247;19;20019;-65
2023/06/29 03:15:20;;;;;;;2.13;0.40;;;;;;;20.86;100.00;100987.81;7361693;19;20602;-65
2023/06/29 03:17:47;;;;;;;2.25;0.35;;;;;;;20.82;100.00;100990.13;7363088;19;20484;-65
2023/06/29 03:20:14;;;;;;;1.63;0.32;;;;;;;20.80;100.00;100996.69;7364011;19;20106;-65
2023/06/29 03:22:41;;;;;;;1.10;0.30;;;;;;;20.75;100.00;100993.84;7364426;19;20585;-65
2023/06/29 03:25:12;;;;;;;2.55;0.40;;;;;;;20.75;100.00;100989.31;7365333;19;20011;-65
2023/06/29 03:27:39;;;;;;;5.15;0.52;;;;;;;20.74;100.00;100995.72;7361195;19;20089;-65
2023/06/29 03:30:06;;;;;;;4.00;0.50;;;;;;;20.73;100.00;100996.75;7361958;19;20029;-65
2023/06/29 03:32:33;;;;;;;2.92;0.30;;;;;;;20.68;100.00;100999.22;7338470;19;20037;-65
2023/06/29 03:35:01;;;;;;;2.15;0.20;;;;;;;20.58;100.00;101004.22;7359535;19;20053;-65
2023/06/29 03:37:28;;;;;;;2.05;0.22;;;;;;;20.44;99.65;101006.16;7363609;19;20030;-65
2023/06/29 03:39:55;;;;;;;1.75;0.20;;;;;;;20.38;99.44;101008.84;7361531;19;20019;-64
2023/06/29 03:42:22;;;;;;;1.95;0.20;;;;;;;20.29;100.00;101013.59;7365178;19;20348;-65
2023/06/29 03:44:49;;;;;;;2.72;0.20;;;;;;;20.20;100.00;101024.75;7361728;19;21058;-65
2023/06/29 03:47:17;;;;;;;1.17;0.10;;;;;;;20.13;100.00;101010.56;7362078;19;20363;-65
2023/06/29 03:49:44;;;;;;;1.45;0.20;;;;;;;20.03;99.94;101029.72;7359209;19;20014;-66
2023/06/29 03:52:11;;;;;;;1.60;0.15;;;;;;;19.98;100.00;101018.84;7364329;19;20021;-64
2023/06/29 03:54:39;;;;;;;0.90;0.08;;;;;;;19.82;98.81;101024.63;7362446;19;20393;-65
2023/06/29 03:57:06;;;;;;;0.57;0.00;;;;;;;19.71;97.86;101022.59;7364135;19;20026;-65
2023/06/29 03:59:33;;;;;;;0.85;0.00;;;;;;;19.63;98.78;101019.13;7356181;19;20010;-65
2023/06/29 04:02:00;;;;;;;0.43;0.00;;;;;;;19.54;99.02;101024.88;7356088;19;20046;-65
2023/06/29 04:04:27;;;;;;;0.65;0.00;;;;;;;19.47;99.99;101021.38;7358597;19;20023;-65
2023/06/29 04:06:54;;;;;;;1.23;0.03;;;;;;;19.40;100.00;101025.88;7362117;19;20014;-65
2023/06/29 04:09:21;;;;;;;0.28;0.00;;;;;;;19.37;100.00;101034.28;7361945;19;20025;-65
2023/06/29 04:11:48;;;;;;;1.75;0.10;;;;;;;19.35;100.00;101031.00;7361245;19;20010;-65
2023/06/29 04:14:15;;;;;;;1.88;0.00;;;;;;;19.29;100.00;101027.31;7362218;19;20412;-65
2023/06/29 04:16:42;;;;;;;2.08;0.10;;;;;;;19.26;100.00;101022.38;7360457;19;20125;-65
2023/06/29 04:19:09;;;;;;;0.32;0.00;;;;;;;19.26;100.00;101030.38;7358245;19;20685;-65
2023/06/29 04:21:36;;;;;;;1.15;0.00;;;;;;;19.19;99.72;101032.22;7361922;19;20014;-65
2023/06/29 04:24:04;;;;;;;0.20;0.00;;;;;;;19.19;100.00;101019.72;7360077;19;20098;-65
2023/06/29 04:26:31;;;;;;;1.20;0.10;;;;;;;19.19;100.00;101033.06;7361059;19;20534;-64
2023/06/29 04:29:02;;;;;;;0.40;0.00;;;;;;;19.20;100.00;101026.69;7362543;19;20019;-64
2023/06/29 04:31:30;;;;;;;1.23;0.00;;;;;;;19.18;100.00;101033.25;7358164;19;20026;-64
2023/06/29 04:34:02;;;;;;;0.43;0.00;;;;;;;19.19;100.00;101030.38;7359855;19;20063;-64
2023/06/29 04:36:30;;;;;;;0.30;0.00;;;;;;;19.13;100.00;101031.19;7361963;19;20094;-64
2023/06/29 04:38:57;;;;;;;0.32;0.00;;;;;;;19.09;100.00;101029.16;7360542;19;20791;-66
2023/06/29 04:41:30;;;;;;;1.05;0.00;;;;;;;19.08;100.00;101030.16;7361745;19;20101;-64
2023/06/29 04:44:01;;;;;;;0.20;0.00;;;;;;;19.04;100.00;101028.94;7361363;19;20414;-66
2023/06/29 04:46:28;;;;;;;0.77;0.00;;;;;;;18.97;100.00;101020.91;7357444;19;20110;-65
2023/06/29 04:48:55;;;;;;;3.28;0.03;;;;;;;18.92;100.00;101039.38;7358835;19;20021;-64
2023/06/29 04:51:25;;;;;;;0.20;0.00;;;;;;;18.86;100.00;101029.50;7358982;19;20011;-65
2023/06/29 04:53:52;;;;;;;0.90;0.00;;;;;;;18.79;100.00;101029.47;7357509;19;20034;-65
2023/06/29 04:56:19;;;;;;;0.60;0.00;;;;;;;18.75;99.69;101030.91;7359166;19;20029;-65
2023/06/29 04:58:46;;;;;;;0.70;0.00;;;;;;;18.72;100.00;101038.50;7360299;19;20018;-65
2023/06/29 05:01:13;;;;;;;0.32;0.00;;;;;;;18.72;100.00;101044.66;7350405;19;20022;-65
2023/06/29 05:03:40;;;;;;;0.20;0.00;;;;;;;18.64;99.87;101050.16;7358812;19;20014;-65
2023/06/29 05:06:18;;;;;;;0.25;0.00;;;;;;;18.65;100.00;101046.47;7359045;19;20018;-64
2023/06/29 05:09:07;;;;;;;0.10;0.00;;;;;;;18.50;99.34;101040.44;7359366;19;20036;-64
2023/06/29 05:11:36;;;;;;;0.47;0.00;;;;;;;18.51;100.00;101044.75;7358968;19;20022;-65
2023/06/29 05:14:03;;;;;;;0.20;0.03;;;;;;;18.49;100.00;101049.44;7359707;19;20037;-65
2023/06/29 05:16:30;;;;;;;0.20;0.00;;;;;;;18.44;100.00;101051.88;7357892;19;20025;-65
2023/06/29 05:18:57;;;;;;;0.20;0.10;;;;;;;18.45;100.00;101050.88;7361682;19;20927;-65
2023/06/29 05:21:26;;;;;;;1.02;0.10;;;;;;;18.46;100.00;101057.84;7361028;19;20138;-65
2023/06/29 05:23:53;;;;;;;1.17;0.10;;;;;;;18.47;100.00;101067.50;7360098;19;20032;-64
2023/06/29 05:26:20;;;;;;;0.13;0.03;;;;;;;18.47;100.00;101067.50;7357365;19;20029;-66
2023/06/29 05:28:47;;;;;;;0.25;0.10;;;;;;;18.51;100.00;101075.91;7357627;19;20382;-64
2023/06/29 05:31:30;;;;;;;0.73;0.22;;;;;;;18.51;100.00;101071.41;7355459;19;20022;-66
2023/06/29 05:33:57;;;;;;;0.40;0.10;;;;;;;18.53;100.00;101074.72;7355161;19;20014;-65
2023/06/29 05:36:24;;;;;;;0.65;0.05;;;;;;;18.52;99.77;101073.06;7355809;19;20327;-65
2023/06/29 05:38:51;;;;;;;0.30;0.03;;;;;;;18.50;100.00;101069.75;7358070;19;20347;-65
2023/06/29 05:41:18;;;;;;;1.05;0.10;;;;;;;18.51;100.00;101074.06;7357491;19;20010;-65
2023/06/29 05:43:45;;;;;;;0.10;0.00;;;;;;;18.50;100.00;101077.75;7357725;19;20045;-64
2023/06/29 05:46:12;;;;;;;1.98;0.10;;;;;;;18.57;100.00;101078.63;7357787;19;20839;-65
2023/06/29 05:48:39;;;;;;;0.30;0.10;;;;;;;18.53;99.71;101088.03;7355235;19;20490;-65
2023/06/29 05:51:06;;;;;;;0.43;0.10;;;;;;;18.48;100.00;101089.66;7356416;19;20019;-64
2023/06/29 05:53:33;;;;;;;1.13;0.10;;;;;;;18.46;100.00;101092.50;7357459;19;20033;-65
2023/06/29 05:56:00;;;;;;;1.20;0.20;;;;;;;18.46;100.00;101099.66;7363749;19;20018;-64
2023/06/29 05:58:27;;;;;;;2.05;0.30;;;;;;;18.47;100.00;101099.47;7363813;19;20023;-66
2023/06/29 06:00:55;;;;;;;2.20;0.25;;;;;;;18.43;100.00;101103.56;7362188;19;20561;-65
2023/06/29 06:03:23;;;;;;;1.08;0.38;;;;;;;18.27;99.84;101096.72;7364164;19;20431;-65
2023/06/29 06:05:50;;;;;;;1.15;0.50;;;;;;;18.29;100.00;101099.16;7365483;19;20030;-65
2023/06/29 06:08:17;;;;;;;1.00;0.40;;;;;;;18.28;100.00;101101.03;7361752;19;20015;-66
2023/06/29 06:10:44;;;;;;;1.63;0.60;;;;;;;18.26;100.00;101103.06;7360533;19;20086;-66
2023/06/29 06:13:12;;;;;;;2.25;0.60;;;;;;;18.25;100.00;101106.72;7364455;19;20021;-65
2023/06/29 06:15:40;;;;;;;1.40;0.70;;;;;;;18.23;99.44;101105.28;7351928;19;20029;-63
2023/06/29 06:18:08;;;;;;;1.88;1.00;;;;;;;18.23;100.00;101115.94;7344367;19;20007;-66
2023/06/29 06:20:35;;;;;;;1.60;0.90;;;;;;;18.21;100.00;101116.13;7363987;19;20018;-65
2023/06/29 06:23:02;;;;;;;2.17;1.00;;;;;;;18.23;100.00;101116.78;7365878;19;20033;-65
2023/06/29 06:25:29;;;;;;;2.40;1.58;;;;;;;18.17;100.00;101114.88;7366059;19;20018;-65
2023/06/29 06:27:56;;;;;;;2.67;1.45;;;;;;;18.17;100.00;101128.22;7362081;19;20018;-65
2023/06/29 06:30:24;;;;;;;3.70;1.90;;;;;;;18.19;100.00;101125.31;7366563;19;20510;-65
2023/06/29 06:32:51;;;;;;;2.90;2.13;;;;;;;18.14;99.87;101120.59;7363360;19;20022;-66
2023/06/29 06:35:18;;;;;;;6.88;2.55;;;;;;;18.10;99.48;101119.34;7365135;19;20023;-64
2023/06/29 06:37:46;;;;;;;4.38;2.80;;;;;;;18.12;100.00;101125.31;7362720;19;20094;-65
2023/06/29 06:40:15;;;;;;;3.38;2.55;;;;;;;18.16;100.00;101133.72;7366169;19;20021;-66
2023/06/29 06:42:42;;;;;;;4.32;2.72;;;;;;;18.16;100.00;101129.22;7367668;19;20039;-66
2023/06/29 06:45:10;;;;;;;3.45;2.28;;;;;;;18.16;100.00;101136.38;7360712;19;20018;-65
2023/06/29 06:47:37;;;;;;;4.35;2.50;;;;;;;18.12;100.00;101135.97;7365359;19;20018;-64
2023/06/29 06:50:05;;;;;;;4.03;2.58;;;;;;;18.16;100.00;101133.72;7362742;19;20011;-65
2023/06/29 06:52:33;;;;;;;2.50;2.30;;;;;;;18.16;100.00;101139.88;7362329;19;20166;-64
2023/06/29 06:55:00;;;;;;;5.57;2.38;;;;;;;18.17;100.00;101130.88;7362010;19;20431;-64
2023/06/29 06:57:27;;;;;;;4.93;2.78;;;;;;;18.15;100.00;101137.41;7363707;19;20118;-64
2023/06/29 07:00:00;;;;;;;5.15;2.50;;;;;;;18.15;100.00;101132.06;7359240;19;20022;-64
2023/06/29 07:02:27;;;;;;;5.50;2.30;;;;;;;18.14;100.00;101133.91;7363495;19;20014;-65
2023/06/29 07:04:54;;;;;;;3.30;1.90;;;;;;;18.15;99.91;101129.41;7359837;19;20010;-65
2023/06/29 07:07:21;;;;;;;3.35;2.28;;;;;;;18.13;100.00;101132.28;7360863;19;20048;-65
2023/06/29 07:09:56;;;;;;;3.85;2.38;;;;;;;18.13;100.00;101139.44;7361267;19;20022;-64
2023/06/29 07:12:23;;;;;;;3.58;2.20;;;;;;;18.16;99.42;101128.41;7365114;19;21939;-65
2023/06/29 07:14:50;;;;;;;9.80;2.70;;;;;;;18.14;99.63;101130.41;7361537;19;20323;-64
2023/06/29 07:17:17;;;;;;;3.25;2.22;;;;;;;18.13;99.36;101132.28;7362100;19;20025;-64
2023/06/29 07:19:57;;;;;;;4.63;2.28;;;;;;;18.14;98.97;101128.56;7343115;19;20027;-66
2023/06/29 07:22:31;;;;;;;3.90;2.20;;;;;;;18.16;99.31;101131.88;7363223;19;20014;-65
2023/06/29 07:25:04;;;;;;;3.08;1.50;;;;;;;18.18;98.91;101132.53;7360978;19;20025;-65
2023/06/29 07:27:31;;;;;;;4.18;1.60;;;;;;;18.24;98.76;101138.88;7362333;19;20708;-66
2023/06/29 07:30:03;;;;;;;3.22;1.90;;;;;;;18.21;97.42;101155.28;7362322;19;20026;-65
2023/06/29 07:32:30;;;;;;;3.60;2.17;;;;;;;18.20;98.65;101150.94;7359628;19;20026;-64
2023/06/29 07:34:58;;;;;;;4.95;2.20;;;;;;;18.21;98.58;101148.09;7362547;19;21043;-64
2023/06/29 07:37:25;;;;;;;4.40;1.75;;;;;;;18.18;98.62;101153.00;7359830;19;21049;-65
2023/06/29 07:39:54;;;;;;;6.30;2.00;;;;;;;18.21;99.91;101161.44;7361452;19;20041;-66
2023/06/29 07:42:22;;;;;;;7.13;3.53;;;;;;;18.23;100.00;101158.56;7362827;19;20020;-65
2023/06/29 07:45:09;;;;;;;4.60;2.97;;;;;;;18.27;99.70;101165.97;7361781;19;20518;-68
2023/06/29 07:47:36;;;;;;;3.70;1.70;;;;;;;18.26;97.74;101172.31;7361545;19;20653;-65
2023/06/29 07:50:04;;;;;;;4.70;1.73;;;;;;;18.26;97.48;101169.66;7356171;19;20124;-65
2023/06/29 07:52:31;;;;;;;4.47;1.60;;;;;;;18.27;98.59;101170.50;7363291;19;20089;-64
2023/06/29 07:54:58;;;;;;;3.30;2.17;;;;;;;18.27;98.70;101167.81;7361272;19;20007;-65
2023/06/29 07:57:25;;;;;;;3.72;1.25;;;;;;;18.27;98.07;101162.50;7362119;19;20044;-66
2023/06/29 07:59:58;;;;;;;;;;;;;;;18.31;97.19;101166.41;7359207;19;20509;-65
2023/06/29 08:02:25;;;;;;;3.72;1.20;;;;;;;18.29;97.65;101166.59;7359886;19;19990;-65
2023/06/29 08:04:52;;;;;;;3.53;1.27;;;;;;;18.31;98.51;101169.91;7360473;19;20970;-64
2023/06/29 08:07:22;;;;;;;2.83;1.23;;;;;;;18.33;98.06;101177.72;7360349;19;20040;-65
2023/06/29 08:09:49;;;;;;;1.98;1.15;;;;;;;18.35;98.02;101171.16;7361039;19;20829;-65
2023/06/29 08:12:19;;;;;;;2.92;1.35;;;;;;;18.32;96.43;101178.72;7364627;19;20018;-64
2023/06/29 08:14:46;;;;;;;2.25;0.50;;;;;;;18.29;96.06;101171.91;7360455;19;20021;-65
2023/06/29 08:17:13;;;;;;;3.92;0.68;;;;;;;18.27;95.81;101170.50;7361341;19;20432;-66
2023/06/29 08:19:40;;;;;;;0.90;0.40;;;;;;;18.28;96.22;101167.63;7357653;19;20037;-64
2023/06/29 08:22:08;;;;;;;1.92;0.40;;;;;;;18.26;96.82;101169.66;7355690;19;20030;-66
2023/06/29 08:24:35;;;;;;;1.92;0.40;;;;;;;18.32;96.93;101178.72;7359819;19;20018;-65
2023/06/29 08:27:02;;;;;;;2.67;0.30;;;;;;;18.27;94.82;101176.63;7363139;19;20355;-65
2023/06/29 08:29:29;;;;;;;1.13;0.40;;;;;;;18.32;96.45;101176.06;7360436;19;20019;-65
2023/06/29 08:31:57;;;;;;;1.67;0.40;;;;;;;18.31;96.59;101175.22;7359864;19;20019;-65
2023/06/29 08:34:24;;;;;;;2.15;0.20;;;;;;;18.32;95.88;101176.06;7357701;19;20917;-65
2023/06/29 08:36:51;;;;;;;2.10;0.38;;;;;;;18.31;96.15;101175.22;7361995;19;20019;-66
2023/06/29 08:39:19;;;;;;;1.85;0.30;;;;;;;18.31;96.57;101177.91;7359675;19;20376;-65
2023/06/29 08:41:46;;;;;;;0.70;0.30;;;;;;;18.33;96.27;101183.03;7363010;19;20022;-66
2023/06/29 08:44:13;;;;;;;0.98;0.40;;;;;;;18.39;95.59;101175.06;7360843;19;20010;-65
2023/06/29 08:46:42;;;;;;;1.38;0.30;;;;;;;18.45;94.42;101180.63;7359623;19;20561;-65
2023/06/29 08:49:11;;;;;;;1.55;0.30;;;;;;;18.39;93.26;101180.38;7356068;19;20017;-66
2023/06/29 08:51:42;;;;;;;0.77;0.30;;;;;;;18.41;94.02;101174.06;7357640;19;20011;-65
2023/06/29 08:54:12;;;;;;;1.52;0.20;;;;;;;18.43;93.04;101183.50;7358182;19;20019;-66
2023/06/29 08:56:39;;;;;;;0.45;0.30;;;;;;;18.42;93.41;101181.03;7357548;19;20126;-65
2023/06/29 08:59:07;;;;;;;0.98;0.40;;;;;;;18.46;94.62;101183.09;7356587;19;20506;-65
2023/06/29 09:01:36;;;;;;;2.72;0.40;;;;;;;18.48;95.30;101191.75;7358278;19;20126;-64
2023/06/29 09:04:03;;;;;;;1.40;0.40;;;;;;;18.54;96.14;101198.97;7360537;19;20663;-64
2023/06/29 09:06:32;;;;;;;1.58;0.55;;;;;;;18.55;95.62;101205.13;7359875;19;20025;-65
2023/06/29 09:08:59;;;;;;;1.85;0.60;;;;;;;18.47;93.36;101199.94;7351295;19;20074;-65
2023/06/29 09:11:26;;;;;;;2.47;0.70;;;;;;;18.46;93.67;101195.59;7360132;19;20033;-65
2023/06/29 09:13:54;;;;;;;1.85;0.73;;;;;;;18.42;93.59;101199.69;7358454;19;20021;-66
2023/06/29 09:16:28;;;;;;;1.77;0.80;;;;;;;18.41;93.02;101195.38;7357493;19;20054;-64
2023/06/29 09:18:57;;;;;;;1.42;0.95;;;;;;;18.38;93.11;101188.59;7358456;19;20489;-65
2023/06/29 09:21:28;;;;;;;2.80;1.20;;;;;;;18.39;93.22;101193.72;7357887;19;20078;-64
2023/06/29 09:23:57;;;;;;;1.15;0.82;;;;;;;18.42;92.58;101194.34;7358479;19;20019;-64
2023/06/29 09:26:28;;;;;;;2.75;0.90;;;;;;;18.46;93.03;101195.59;7359521;19;21390;-65
2023/06/29 09:29:03;;;;;;;4.20;0.93;;;;;;;18.50;93.65;101194.19;7354518;19;20505;-64
2023/06/29 09:31:35;;;;;;;1.25;0.80;;;;;;;18.55;91.43;101202.47;7361229;19;20411;-66
2023/06/29 09:34:22;;;;;;;3.45;0.90;;;;;;;18.59;90.83;101207.19;7363264;19;20037;-65
2023/06/29 09:36:49;;;;;;;2.58;0.90;;;;;;;18.49;90.67;101205.91;7365372;19;21002;-65
2023/06/29 09:39:17;;;;;;;2.38;0.80;;;;;;;18.50;90.58;101210.19;7366260;19;20041;-65
2023/06/29 09:41:56;;;;;;;2.38;0.60;;;;;;;18.50;90.70;101210.19;7367817;19;20538;-64
2023/06/29 09:44:24;;;;;;;1.55;0.60;;;;;;;18.46;90.19;101208.94;7364290;19;20070;-66
2023/06/29 09:47:02;;;;;;;1.63;0.60;;;;;;;18.48;91.94;101209.56;7361702;19;20018;-66
2023/06/29 09:49:55;;;;;;;1.75;0.70;;;;;;;18.53;92.24;101213.31;7361470;19;20023;-65
2023/06/29 09:52:23;;;;;;;1.60;0.50;;;;;;;18.54;90.90;101212.28;7364427;19;20030;-65
2023/06/29 09:54:55;;;;;;;0.98;0.60;;;;;;;18.47;90.44;101210.59;7364894;19;20011;-66
2023/06/29 09:57:25;;;;;;;1.88;0.73;;;;;;;18.43;90.77;101220.81;7364901;19;20045;-67
2023/06/29 09:59:55;;;;;;;3.35;1.00;;;;;;;18.43;91.75;101212.81;7366723;19;20022;-66
2023/06/29 10:02:22;;;;;;;3.38;0.95;;;;;;;18.52;91.18;101216.16;7364941;19;20543;-66
2023/06/29 10:04:49;;;;;;;2.20;1.00;;;;;;;18.46;89.76;101216.94;7362826;19;20019;-64
2023/06/29 10:07:21;;;;;;;2.78;0.77;;;;;;;18.48;90.49;101213.06;7368524;19;20483;-66
2023/06/29 10:09:58;;;;;;;4.43;1.10;;;;;;;18.51;90.67;101207.34;7362248;19;20309;-65
2023/06/29 10:12:27;;;;;;;2.90;1.35;;;;;;;18.52;90.65;101213.50;7366958;19;20026;-65
2023/06/29 10:14:58;;;;;;;4.32;1.00;;;;;;;18.58;91.32;101218.91;7363584;19;20022;-65
2023/06/29 10:17:43;;;;;;;2.70;1.10;;;;;;;18.67;88.95;101227.56;7364672;19;20015;-65
2023/06/29 10:20:13;;;;;;;2.65;1.10;;;;;;;18.72;89.02;101214.47;7367318;19;20018;-66
2023/06/29 10:22:42;;;;;;;3.63;1.15;;;;;;;18.80;88.27;101220.47;7365055;19;20006;-66
2023/06/29 10:25:14;;;;;;;1.95;1.20;;;;;;;18.90;86.64;101230.75;7364750;19;20014;-66
2023/06/29 10:27:42;;;;;;;2.72;0.95;;;;;;;18.98;86.58;101221.78;7364657;19;20657;-66
2023/06/29 10:30:10;;;;;;;4.35;0.95;;;;;;;19.08;86.58;101222.25;7363550;19;20014;-66
2023/06/29 10:32:39;;;;;;;2.15;0.82;;;;;;;19.15;85.86;101221.22;7364846;19;20345;-65
2023/06/29 10:35:08;;;;;;;3.60;0.80;;;;;;;19.24;85.75;101224.56;7363628;19;20025;-65
2023/06/29 10:37:37;;;;;;;2.50;0.75;;;;;;;19.37;83.73;101215.78;7364614;19;20018;-65
2023/06/29 10:40:10;;;;;;;1.88;0.70;;;;;;;19.46;83.78;101217.25;7364972;19;20692;-65
2023/06/29 10:42:37;;;;;;;1.80;0.60;;;;;;;19.47;83.46;101217.06;7365355;19;20503;-66
2023/06/29 10:45:19;;;;;;;4.03;0.93;;;;;;;19.50;83.50;101219.34;7364682;19;20567;-65
2023/06/29 10:48:00;;;;;;;6.35;1.38;;;;;;;19.54;82.48;101215.25;7362912;19;20022;-65
2023/06/29 10:50:31;;;;;;;2.45;0.60;;;;;;;19.56;83.01;101217.69;7360569;19;20015;-65
2023/06/29 10:53:00;;;;;;;2.85;0.80;;;;;;;19.58;81.40;101223.69;7362337;19;20109;-66
2023/06/29 10:55:38;;;;;;;1.40;0.40;;;;;;;19.70;79.83;101213.22;7363076;19;20024;-66
2023/06/29 10:58:25;;;;;;;1.88;0.60;;;;;;;19.89;80.24;101218.59;7364477;19;20063;-66
2023/06/29 11:00:53;;;;;;;2.50;0.63;;;;;;;20.02;80.84;101212.41;7362924;19;20018;-64
2023/06/29 11:03:21;;;;;;;2.38;0.40;;;;;;;20.13;76.94;101216.34;7359344;19;20011;-66
2023/06/29 11:05:54;;;;;;;1.15;0.50;;;;;;;20.16;77.18;101221.28;7362891;19;20018;-65
2023/06/29 11:08:22;;;;;;;2.45;0.50;;;;;;;20.27;76.44;101225.97;7361668;19;20010;-65
2023/06/29 11:10:52;;;;;;;2.33;0.40;;;;;;;20.25;76.59;101212.84;7364664;19;20026;-66
2023/06/29 11:13:20;;;;;;;0.60;0.40;;;;;;;20.25;77.26;101223.53;7360565;19;20026;-65
2023/06/29 11:15:56;;;;;;;1.98;0.55;;;;;;;20.31;78.93;101221.94;7361727;19;20494;-64
2023/06/29 11:18:23;;;;;;;0.82;0.50;;;;;;;20.31;76.91;101219.25;7362187;19;20411;-65
2023/06/29 11:20:50;;;;;;;1.67;0.40;;;;;;;20.28;74.45;101230.31;7363341;19;20423;-65
2023/06/29 11:23:17;;;;;;;2.22;0.85;;;;;;;20.23;72.90;101225.59;7363189;19;20853;-65
2023/06/29 11:25:44;;;;;;;1.25;0.30;;;;;;;20.28;71.35;101220.44;7362495;19;20039;-65
2023/06/29 11:28:14;;;;;;;1.13;0.30;;;;;;;20.39;70.85;101227.88;7364447;19;20526;-65
2023/06/29 11:30:42;;;;;;;1.30;0.32;;;;;;;20.42;69.55;101222.09;7363263;19;20584;-64